createdAt,value
2023-02-11T00:00:17.571Z,98.40
2023-02-11T00:01:17.479Z,97.20
2023-02-11T00:02:17.415Z,91.70
2023-02-11T00:03:17.355Z,94.50
2023-02-11T00:04:17.221Z,99.90
2023-02-11T00:05:17.152Z,96.90
2023-02-11T00:06:17.064Z,93.40
2023-02-11T00:07:16.974Z,97.10
2023-02-11T00:08:16.920Z,101.50
2023-02-11T00:09:16.792Z,94.00
2023-02-11T00:10:16.723Z,85.70
2023-02-11T00:11:16.624Z,96.10
2023-02-11T00:12:16.545Z,100.70
2023-02-11T00:13:16.458Z,98.80
2023-02-11T00:14:16.370Z,94.00
2023-02-11T00:15:16.293Z,99.20
2023-02-11T00:16:16.232Z,102.60
2023-02-11T00:17:16.118Z,98.70
2023-02-11T00:18:16.034Z,98.80
2023-02-11T00:19:15.958Z,101.50
2023-02-11T00:20:15.892Z,99.80
2023-02-11T00:21:15.795Z,99.80
2023-02-11T00:22:15.715Z,100.70
2023-02-11T00:23:15.633Z,98.10
2023-02-11T00:24:15.547Z,98.40
2023-02-11T00:25:15.466Z,90.70
2023-02-11T00:26:15.385Z,98.50
2023-02-11T00:27:15.295Z,96.10
2023-02-11T00:28:15.234Z,95.40
2023-02-11T00:29:15.124Z,95.00
2023-02-11T00:30:15.057Z,96.10
2023-02-11T00:31:15.102Z,99.20
2023-02-11T00:32:14.865Z,95.80
2023-02-11T00:33:14.783Z,92.00
2023-02-11T00:34:14.696Z,98.10
2023-02-11T00:35:14.631Z,87.40
2023-02-11T00:36:14.541Z,87.70
2023-02-11T00:37:14.432Z,92.60
2023-02-11T00:38:14.352Z,91.40
2023-02-11T00:39:14.266Z,84.20
2023-02-11T00:40:14.194Z,87.70
2023-02-11T00:41:14.092Z,87.40
2023-02-11T00:42:14.013Z,88.30
2023-02-11T00:43:13.932Z,88.00
2023-02-11T00:44:13.856Z,87.70
2023-02-11T00:45:13.782Z,90.20
2023-02-11T00:46:13.733Z,86.40
2023-02-11T00:47:13.605Z,90.40
2023-02-11T00:48:13.524Z,89.40
2023-02-11T00:49:13.432Z,95.00
2023-02-11T00:50:13.363Z,87.90
2023-02-11T00:51:13.266Z,90.10
2023-02-11T00:52:13.173Z,87.80
2023-02-11T00:53:13.099Z,85.50
2023-02-11T00:54:13.002Z,86.60
2023-02-11T00:55:12.925Z,88.50
2023-02-11T00:56:12.822Z,88.90
2023-02-11T00:57:12.744Z,94.90
2023-02-11T00:58:12.656Z,87.60
2023-02-11T00:59:12.565Z,88.00
2023-02-11T01:00:12.495Z,87.90
2023-02-11T01:01:12.436Z,87.60
2023-02-11T01:02:12.307Z,88.70
2023-02-11T01:03:12.224Z,86.70
2023-02-11T01:04:12.152Z,87.70
2023-02-11T01:05:12.122Z,84.80
2023-02-11T01:06:11.975Z,85.00
2023-02-11T01:07:11.886Z,85.30
2023-02-11T01:08:11.797Z,83.60
2023-02-11T01:09:11.711Z,86.90
2023-02-11T01:10:11.632Z,88.90
2023-02-11T01:11:11.538Z,87.20
2023-02-11T01:12:11.453Z,89.10
2023-02-11T01:13:11.349Z,92.70
2023-02-11T01:14:11.275Z,91.30
2023-02-11T01:15:11.192Z,93.60
2023-02-11T01:16:11.138Z,89.30
2023-02-11T01:17:11.030Z,89.40
2023-02-11T01:18:10.960Z,101.50
2023-02-11T01:19:10.871Z,95.50
2023-02-11T01:20:10.824Z,95.80
2023-02-11T01:21:10.714Z,96.10
2023-02-11T01:22:10.641Z,88.80
2023-02-11T01:23:10.561Z,91.90
2023-02-11T01:24:10.495Z,97.20
2023-02-11T01:25:10.424Z,94.70
2023-02-11T01:26:10.333Z,99.90
2023-02-11T01:27:10.251Z,95.20
2023-02-11T01:28:10.207Z,88.80
2023-02-11T01:29:10.092Z,102.50
2023-02-11T01:30:10.023Z,95.10
2023-02-11T01:31:09.977Z,96.90
2023-02-11T01:32:09.944Z,90.00
2023-02-11T01:33:09.760Z,96.00
2023-02-11T01:34:09.684Z,94.10
2023-02-11T01:35:09.606Z,91.50
2023-02-11T01:36:09.540Z,87.10
2023-02-11T01:37:09.433Z,87.20
2023-02-11T01:38:09.354Z,90.10
2023-02-11T01:39:09.267Z,88.20
2023-02-11T01:40:09.197Z,87.10
2023-02-11T01:41:09.119Z,83.30
2023-02-11T01:42:09.015Z,83.80
2023-02-11T01:43:08.934Z,86.20
2023-02-11T01:44:08.846Z,83.10
2023-02-11T01:45:08.768Z,82.30
2023-02-11T01:46:08.707Z,77.70
2023-02-11T01:47:08.584Z,84.50
2023-02-11T01:48:08.508Z,77.40
2023-02-11T01:49:08.483Z,79.50
2023-02-11T01:50:08.336Z,71.90
2023-02-11T01:51:08.262Z,81.20
2023-02-11T01:52:08.156Z,77.90
2023-02-11T01:53:08.070Z,80.10
2023-02-11T01:54:07.997Z,79.10
2023-02-11T01:55:07.916Z,78.40
2023-02-11T01:56:07.827Z,73.50
2023-02-11T01:57:07.741Z,77.40
2023-02-11T01:58:07.658Z,75.70
2023-02-11T01:59:07.580Z,75.40
2023-02-11T02:00:07.510Z,78.30
2023-02-11T02:01:07.408Z,76.90
2023-02-11T02:02:07.332Z,74.50
2023-02-11T02:03:07.230Z,78.60
2023-02-11T02:04:07.148Z,73.90
2023-02-11T02:05:07.071Z,76.80
2023-02-11T02:06:06.970Z,73.20
2023-02-11T02:07:06.888Z,74.90
2023-02-11T02:08:06.810Z,79.30
2023-02-11T02:09:06.710Z,71.80
2023-02-11T02:10:06.637Z,76.10
2023-02-11T02:11:06.536Z,73.70
2023-02-11T02:12:06.455Z,73.10
2023-02-11T02:13:06.360Z,73.10
2023-02-11T02:14:06.277Z,72.80
2023-02-11T02:15:06.196Z,70.10
2023-02-11T02:16:08.581Z,71.80
2023-02-11T02:17:06.021Z,69.30
2023-02-11T02:18:05.927Z,73.40
2023-02-11T02:19:05.837Z,72.60
2023-02-11T02:20:05.766Z,72.60
2023-02-11T02:21:05.666Z,71.90
2023-02-11T02:22:05.586Z,73.60
2023-02-11T02:23:05.487Z,80.00
2023-02-11T02:24:05.415Z,78.70
2023-02-11T02:25:05.334Z,73.60
2023-02-11T02:26:05.238Z,78.20
2023-02-11T02:27:05.144Z,77.90
2023-02-11T02:28:05.108Z,80.30
2023-02-11T02:29:04.967Z,78.60
2023-02-11T02:30:04.902Z,77.90
2023-02-11T02:31:04.906Z,78.00
2023-02-11T02:32:04.706Z,78.10
2023-02-11T02:33:20.592Z,73.30
2023-02-11T02:34:05.525Z,80.00
2023-02-11T02:35:04.452Z,80.20
2023-02-11T02:36:04.368Z,81.00
2023-02-11T02:37:04.254Z,79.70
2023-02-11T02:38:04.162Z,78.30
2023-02-11T02:39:04.069Z,80.80
2023-02-11T02:40:03.991Z,81.60
2023-02-11T02:41:03.895Z,80.90
2023-02-11T02:42:03.798Z,77.00
2023-02-11T02:43:03.700Z,84.40
2023-02-11T02:44:03.623Z,76.40
2023-02-11T02:45:03.538Z,79.50
2023-02-11T02:46:03.444Z,79.10
2023-02-11T02:47:03.400Z,81.80
2023-02-11T02:48:03.263Z,73.70
2023-02-11T02:49:03.163Z,78.90
2023-02-11T02:50:03.082Z,76.80
2023-02-11T02:51:02.975Z,74.60
2023-02-11T02:52:02.903Z,79.90
2023-02-11T02:53:02.805Z,81.20
2023-02-11T02:54:02.732Z,82.50
2023-02-11T02:55:02.626Z,79.10
2023-02-11T02:56:02.542Z,83.30
2023-02-11T02:57:02.457Z,78.80
2023-02-11T02:58:02.366Z,77.60
2023-02-11T02:59:02.288Z,78.20
2023-02-11T03:00:02.221Z,80.40
2023-02-11T03:01:02.145Z,82.00
2023-02-11T03:02:02.059Z,81.30
2023-02-11T03:03:01.926Z,85.30
2023-02-11T03:04:01.944Z,86.20
2023-02-11T03:05:01.781Z,86.40
2023-02-11T03:06:01.679Z,82.80
2023-02-11T03:07:01.591Z,83.00
2023-02-11T03:08:01.542Z,80.10
2023-02-11T03:09:01.417Z,77.60
2023-02-11T03:10:01.341Z,87.10
2023-02-11T03:11:01.252Z,83.80
2023-02-11T03:12:01.155Z,87.20
2023-02-11T03:13:01.059Z,83.50
2023-02-11T03:14:00.984Z,84.70
2023-02-11T03:15:00.913Z,84.50
2023-02-11T03:16:00.852Z,87.40
2023-02-11T03:17:00.729Z,79.70
2023-02-11T03:18:00.637Z,85.00
2023-02-11T03:19:00.557Z,89.60
2023-02-11T03:20:00.482Z,86.60
2023-02-11T03:21:00.382Z,83.40
2023-02-11T03:22:00.293Z,87.40
2023-02-11T03:23:00.219Z,92.20
2023-02-11T03:24:00.118Z,90.10
2023-02-11T03:25:00.073Z,95.80
2023-02-11T03:25:59.960Z,88.60
2023-02-11T03:26:59.882Z,96.80
2023-02-11T03:27:59.809Z,95.80
2023-02-11T03:28:59.721Z,94.80
2023-02-11T03:29:59.640Z,95.80
2023-02-11T03:30:59.570Z,95.70
2023-02-11T03:31:59.487Z,94.60
2023-02-11T03:32:59.372Z,89.60
2023-02-11T03:33:59.281Z,92.50
2023-02-11T03:34:59.201Z,89.70
2023-02-11T03:35:59.106Z,90.50
2023-02-11T03:36:59.025Z,85.60
2023-02-11T03:37:58.924Z,97.40
2023-02-11T03:38:58.846Z,92.30
2023-02-11T03:39:58.764Z,92.50
2023-02-11T03:40:58.675Z,94.30
2023-02-11T03:41:58.578Z,93.00
2023-02-11T03:42:58.504Z,90.00
2023-02-11T03:43:58.409Z,92.90
2023-02-11T03:44:58.342Z,94.70
2023-02-11T03:45:58.277Z,97.40
2023-02-11T03:46:58.144Z,95.20
2023-02-11T03:47:58.056Z,91.30
2023-02-11T03:48:57.985Z,92.60
2023-02-11T03:49:57.908Z,96.30
2023-02-11T03:50:57.824Z,90.50
2023-02-11T03:51:57.734Z,91.30
2023-02-11T03:52:57.662Z,93.10
2023-02-11T03:53:57.565Z,87.70
2023-02-11T03:54:57.511Z,90.20
2023-02-11T03:55:57.403Z,92.60
2023-02-11T03:56:57.339Z,92.00
2023-02-11T03:57:57.244Z,93.10
2023-02-11T03:58:57.165Z,87.90
2023-02-11T03:59:57.100Z,92.50
2023-02-11T04:00:57.037Z,91.90
2023-02-11T04:01:56.915Z,85.50
2023-02-11T04:02:56.886Z,88.00
2023-02-11T04:03:56.784Z,87.60
2023-02-11T04:04:56.683Z,90.90
2023-02-11T04:05:56.576Z,91.20
2023-02-11T04:06:56.498Z,94.90
2023-02-11T04:07:56.409Z,94.80
2023-02-11T04:08:56.335Z,96.60
2023-02-11T04:09:56.258Z,97.60
2023-02-11T04:10:56.166Z,104.60
2023-02-11T04:11:56.078Z,95.80
2023-02-11T04:12:56.006Z,91.30
2023-02-11T04:13:55.919Z,103.70
2023-02-11T04:14:55.851Z,100.70
2023-02-11T04:15:55.748Z,103.90
2023-02-11T04:16:55.671Z,99.40
2023-02-11T04:17:55.760Z,108.20
2023-02-11T04:18:55.509Z,102.10
2023-02-11T04:19:55.440Z,109.60
2023-02-11T04:20:55.340Z,105.80
2023-02-11T04:21:55.251Z,105.30
2023-02-11T04:22:55.170Z,102.90
2023-02-11T04:23:55.094Z,104.00
2023-02-11T04:24:55.010Z,108.10
2023-02-11T04:25:54.919Z,111.50
2023-02-11T04:26:54.840Z,122.00
2023-02-11T04:27:54.810Z,113.60
2023-02-11T04:28:54.683Z,112.60
2023-02-11T04:29:54.603Z,128.30
2023-02-11T04:30:54.605Z,129.30
2023-02-11T04:31:54.514Z,146.50
2023-02-11T04:32:54.381Z,158.40
2023-02-11T04:33:54.289Z,152.90
2023-02-11T04:34:54.216Z,133.40
2023-02-11T04:35:54.126Z,143.70
2023-02-11T04:36:54.042Z,152.50
2023-02-11T04:37:53.962Z,142.30
2023-02-11T04:38:53.904Z,148.20
2023-02-11T04:39:53.824Z,147.00
2023-02-11T04:40:53.733Z,146.30
2023-02-11T04:41:53.655Z,152.10
2023-02-11T04:42:53.575Z,148.40
2023-02-11T04:43:53.504Z,149.30
2023-02-11T04:44:53.431Z,134.20
2023-02-11T04:45:53.563Z,139.40
2023-02-11T04:46:53.262Z,148.20
2023-02-11T04:47:53.175Z,137.40
2023-02-11T04:48:53.108Z,143.00
2023-02-11T04:49:53.029Z,138.40
2023-02-11T04:50:52.950Z,128.30
2023-02-11T04:51:52.855Z,123.80
2023-02-11T04:52:52.785Z,134.60
2023-02-11T04:53:52.695Z,138.40
2023-02-11T04:54:52.637Z,143.10
2023-02-11T04:55:52.825Z,145.70
2023-02-11T04:56:52.460Z,142.80
2023-02-11T04:57:52.377Z,142.90
2023-02-11T04:58:52.306Z,151.50
2023-02-11T04:59:52.222Z,144.50
2023-02-11T05:00:52.180Z,139.20
2023-02-11T05:01:52.050Z,144.90
2023-02-11T05:02:51.977Z,135.70
2023-02-11T05:03:51.895Z,130.00
2023-02-11T05:04:51.816Z,138.70
2023-02-11T05:05:52.118Z,139.60
2023-02-11T05:06:51.656Z,130.30
2023-02-11T05:07:51.588Z,130.10
2023-02-11T05:08:51.506Z,129.60
2023-02-11T05:09:51.416Z,139.30
2023-02-11T05:10:51.351Z,139.80
2023-02-11T05:11:51.257Z,135.20
2023-02-11T05:12:51.909Z,137.70
2023-02-11T05:13:51.090Z,135.90
2023-02-11T05:14:51.016Z,144.80
2023-02-11T05:15:51.210Z,141.60
2023-02-11T05:16:50.860Z,134.30
2023-02-11T05:17:50.745Z,143.90
2023-02-11T05:18:52.515Z,135.00
2023-02-11T05:19:50.567Z,141.40
2023-02-11T05:20:50.500Z,144.30
2023-02-11T05:22:01.629Z,126.90
2023-02-11T05:22:51.319Z,128.90
2023-02-11T05:23:50.229Z,153.30
2023-02-11T05:24:50.161Z,127.80
2023-02-11T05:25:50.407Z,133.80
2023-02-11T05:26:49.979Z,137.50
2023-02-11T05:27:49.904Z,133.10
2023-02-11T05:28:49.830Z,138.50
2023-02-11T05:29:49.762Z,132.40
2023-02-11T05:30:49.745Z,136.50
2023-02-11T05:31:49.601Z,134.60
2023-02-11T05:32:49.519Z,142.20
2023-02-11T05:33:49.442Z,141.10
2023-02-11T05:34:49.362Z,129.60
2023-02-11T05:35:49.645Z,144.60
2023-02-11T05:36:49.189Z,147.20
2023-02-11T05:37:49.100Z,134.50
2023-02-11T05:38:49.030Z,127.60
2023-02-11T05:39:48.944Z,136.40
2023-02-11T05:40:48.887Z,150.80
2023-02-11T05:41:48.789Z,143.10
2023-02-11T05:42:48.717Z,150.20
2023-02-11T05:43:48.621Z,139.50
2023-02-11T05:44:50.558Z,138.80
2023-02-11T05:45:48.731Z,130.30
2023-02-11T05:46:48.382Z,138.00
2023-02-11T05:47:48.281Z,135.90
2023-02-11T05:48:48.223Z,137.10
2023-02-11T05:49:48.121Z,138.40
2023-02-11T05:50:48.053Z,134.10
2023-02-11T05:51:47.957Z,129.90
2023-02-11T05:52:47.860Z,115.70
2023-02-11T05:53:47.763Z,132.00
2023-02-11T05:54:47.683Z,128.40
2023-02-11T05:55:47.656Z,121.10
2023-02-11T05:56:47.503Z,137.70
2023-02-11T05:57:47.413Z,128.40
2023-02-11T05:58:47.330Z,124.70
2023-02-11T05:59:47.233Z,131.40
2023-02-11T06:00:47.162Z,125.70
2023-02-11T06:01:47.066Z,125.80
2023-02-11T06:02:47.036Z,114.10
2023-02-11T06:03:46.876Z,122.30
2023-02-11T06:04:46.764Z,129.10
2023-02-11T06:05:46.673Z,122.10
2023-02-11T06:06:46.576Z,121.70
2023-02-11T06:07:46.464Z,120.80
2023-02-11T06:08:46.365Z,117.00
2023-02-11T06:09:46.275Z,121.40
2023-02-11T06:10:46.176Z,134.90
2023-02-11T06:11:46.066Z,128.40
2023-02-11T06:12:45.966Z,121.40
2023-02-11T06:13:45.855Z,109.80
2023-02-11T06:14:45.765Z,114.20
2023-02-11T06:15:45.697Z,118.50
2023-02-11T06:16:45.591Z,134.90
2023-02-11T06:17:45.465Z,138.10
2023-02-11T06:18:45.375Z,141.00
2023-02-11T06:19:45.295Z,137.40
2023-02-11T06:20:45.186Z,130.20
2023-02-11T06:21:45.097Z,139.30
2023-02-11T06:22:44.978Z,131.30
2023-02-11T06:23:44.880Z,124.40
2023-02-11T06:25:00.335Z,125.90
2023-02-11T06:25:45.694Z,125.40
2023-02-11T06:26:44.586Z,120.30
2023-02-11T06:27:44.488Z,135.20
2023-02-11T06:28:44.455Z,128.20
2023-02-11T06:29:44.292Z,127.30
2023-02-11T06:30:44.231Z,129.70
2023-02-11T06:31:44.162Z,126.20
2023-02-11T06:32:45.409Z,123.20
2023-02-11T06:33:43.889Z,131.90
2023-02-11T06:34:43.790Z,126.50
2023-02-11T06:35:43.701Z,129.90
2023-02-11T06:36:43.590Z,109.90
2023-02-11T06:37:43.500Z,120.90
2023-02-11T06:38:43.400Z,117.40
2023-02-11T06:39:43.304Z,113.20
2023-02-11T06:40:43.210Z,121.70
2023-02-11T06:41:43.101Z,132.60
2023-02-11T06:42:43.015Z,130.70
2023-02-11T06:43:42.903Z,126.50
2023-02-11T06:44:42.823Z,116.10
2023-02-11T06:45:42.721Z,120.40
2023-02-11T06:46:42.668Z,122.90
2023-02-11T06:47:42.546Z,114.60
2023-02-11T06:48:44.485Z,129.90
2023-02-11T06:49:42.379Z,120.80
2023-02-11T06:50:42.257Z,115.20
2023-02-11T06:51:42.124Z,106.30
2023-02-11T06:52:42.032Z,119.10
2023-02-11T06:53:41.950Z,114.00
2023-02-11T06:54:41.832Z,110.20
2023-02-11T06:55:41.743Z,101.80
2023-02-11T06:56:41.634Z,108.20
2023-02-11T06:57:41.547Z,97.50
2023-02-11T06:58:41.464Z,104.60
2023-02-11T06:59:41.372Z,104.80
2023-02-11T07:00:41.286Z,118.40
2023-02-11T07:01:41.184Z,108.50
2023-02-11T07:02:41.090Z,103.70
2023-02-11T07:03:40.963Z,107.70
2023-02-11T07:04:40.867Z,105.30
2023-02-11T07:05:40.774Z,106.40
2023-02-11T07:06:40.675Z,108.20
2023-02-11T07:07:40.575Z,101.60
2023-02-11T07:08:40.502Z,103.30
2023-02-11T07:09:40.386Z,96.40
2023-02-11T07:10:40.324Z,106.50
2023-02-11T07:11:40.197Z,110.00
2023-02-11T07:12:40.103Z,102.60
2023-02-11T07:13:39.997Z,106.50
2023-02-11T07:14:39.906Z,102.10
2023-02-11T07:15:39.836Z,107.60
2023-02-11T07:16:39.841Z,116.80
2023-02-11T07:17:39.630Z,120.60
2023-02-11T07:18:39.528Z,99.40
2023-02-11T07:19:39.427Z,107.90
2023-02-11T07:20:39.354Z,115.70
2023-02-11T07:21:39.255Z,112.20
2023-02-11T07:22:39.138Z,116.90
2023-02-11T07:23:39.055Z,107.60
2023-02-11T07:24:38.948Z,94.30
2023-02-11T07:25:38.868Z,96.80
2023-02-11T07:26:38.756Z,107.90
2023-02-11T07:27:38.664Z,106.70
2023-02-11T07:28:38.556Z,94.20
2023-02-11T07:29:38.460Z,115.20
2023-02-11T07:30:38.368Z,114.30
2023-02-11T07:31:38.330Z,102.50
2023-02-11T07:32:38.152Z,127.50
2023-02-11T07:33:38.050Z,135.70
2023-02-11T07:34:38.046Z,132.90
2023-02-11T07:35:37.860Z,123.50
2023-02-11T07:36:37.739Z,121.50
2023-02-11T07:37:37.640Z,151.50
2023-02-11T07:38:37.545Z,176.50
2023-02-11T07:39:37.456Z,186.80
2023-02-11T07:40:37.359Z,211.80
2023-02-11T07:41:38.133Z,218.40
2023-02-11T07:42:37.149Z,221.80
2023-02-11T07:43:37.081Z,219.60
2023-02-11T07:44:36.968Z,230.30
2023-02-11T07:45:36.872Z,231.10
2023-02-11T07:46:36.823Z,226.40
2023-02-11T07:47:36.666Z,242.40
2023-02-11T07:48:36.551Z,248.50
2023-02-11T07:49:36.461Z,219.60
2023-02-11T07:50:36.351Z,215.70
2023-02-11T07:51:36.243Z,269.20
2023-02-11T07:52:36.134Z,254.40
2023-02-11T07:53:36.038Z,253.10
2023-02-11T07:54:35.922Z,309.10
2023-02-11T07:55:35.831Z,322.90
2023-02-11T07:56:35.716Z,323.80
2023-02-11T07:57:35.611Z,338.20
2023-02-11T07:58:35.505Z,382.90
2023-02-11T07:59:35.412Z,349.00
2023-02-11T08:00:35.390Z,389.70
2023-02-11T08:01:35.201Z,363.70
2023-02-11T08:02:35.156Z,417.80
2023-02-11T08:03:34.997Z,402.50
2023-02-11T08:04:34.900Z,401.40
2023-02-11T08:05:34.789Z,360.10
2023-02-11T08:06:34.697Z,315.60
2023-02-11T08:07:34.590Z,331.40
2023-02-11T08:08:34.485Z,313.10
2023-02-11T08:09:34.605Z,282.40
2023-02-11T08:10:34.263Z,261.90
2023-02-11T08:11:34.189Z,238.10
2023-02-11T08:12:34.067Z,304.70
2023-02-11T08:13:33.962Z,284.50
2023-02-11T08:14:33.863Z,303.90
2023-02-11T08:15:33.742Z,259.20
2023-02-11T08:16:33.747Z,315.60
2023-02-11T08:17:33.552Z,229.70
2023-02-11T08:18:33.433Z,249.90
2023-02-11T08:19:35.178Z,246.50
2023-02-11T08:20:33.232Z,264.10
2023-02-11T08:21:33.141Z,276.80
2023-02-11T08:22:33.056Z,252.20
2023-02-11T08:23:32.952Z,268.20
2023-02-11T08:24:32.843Z,245.30
2023-02-11T08:25:32.735Z,299.30
2023-02-11T08:26:32.640Z,262.20
2023-02-11T08:27:32.539Z,243.00
2023-02-11T08:28:32.452Z,286.30
2023-02-11T08:29:32.323Z,245.20
2023-02-11T08:30:32.212Z,264.10
2023-02-11T08:31:32.201Z,253.00
2023-02-11T08:32:32.023Z,219.30
2023-02-11T08:33:31.902Z,248.00
2023-02-11T08:34:31.793Z,235.70
2023-02-11T08:35:31.689Z,236.90
2023-02-11T08:36:31.582Z,221.30
2023-02-11T08:37:33.038Z,230.10
2023-02-11T08:38:31.377Z,256.60
2023-02-11T08:39:31.266Z,222.80
2023-02-11T08:40:31.194Z,221.90
2023-02-11T08:41:31.073Z,211.20
2023-02-11T08:42:30.954Z,228.70
2023-02-11T08:43:30.871Z,219.10
2023-02-11T08:44:30.763Z,210.30
2023-02-11T08:45:30.714Z,211.80
2023-02-11T08:46:30.618Z,229.40
2023-02-11T08:47:30.464Z,243.60
2023-02-11T08:48:30.382Z,229.20
2023-02-11T08:49:30.275Z,221.60
2023-02-11T08:50:30.171Z,217.90
2023-02-11T08:51:30.067Z,195.40
2023-02-11T08:52:29.983Z,184.90
2023-02-11T08:53:29.879Z,213.30
2023-02-11T08:54:29.767Z,218.80
2023-02-11T08:55:29.667Z,214.90
2023-02-11T08:56:29.556Z,217.20
2023-02-11T08:57:29.457Z,229.50
2023-02-11T08:58:29.355Z,230.30
2023-02-11T08:59:29.271Z,221.60
2023-02-11T09:00:29.157Z,218.40
2023-02-11T09:01:29.119Z,214.80
2023-02-11T09:02:28.964Z,222.40
2023-02-11T09:03:28.839Z,212.00
2023-02-11T09:04:28.726Z,226.20
2023-02-11T09:05:28.650Z,220.10
2023-02-11T09:06:28.531Z,216.30
2023-02-11T09:07:28.429Z,206.10
2023-02-11T09:08:28.317Z,212.50
2023-02-11T09:09:28.227Z,221.70
2023-02-11T09:10:28.138Z,214.00
2023-02-11T09:11:28.038Z,214.60
2023-02-11T09:12:27.927Z,217.70
2023-02-11T09:13:27.818Z,213.30
2023-02-11T09:14:27.721Z,224.70
2023-02-11T09:15:27.630Z,193.60
2023-02-11T09:16:27.568Z,196.10
2023-02-11T09:17:27.430Z,204.10
2023-02-11T09:18:27.330Z,195.60
2023-02-11T09:19:27.230Z,213.30
2023-02-11T09:20:27.142Z,200.40
2023-02-11T09:21:27.038Z,205.70
2023-02-11T09:22:26.925Z,226.40
2023-02-11T09:23:26.822Z,230.50
2023-02-11T09:24:26.718Z,211.80
2023-02-11T09:25:26.629Z,217.00
2023-02-11T09:26:26.513Z,199.50
2023-02-11T09:27:26.402Z,217.10
2023-02-11T09:28:26.364Z,225.60
2023-02-11T09:29:26.196Z,216.60
2023-02-11T09:30:26.105Z,229.80
2023-02-11T09:31:26.154Z,258.50
2023-02-11T09:32:25.869Z,232.00
2023-02-11T09:33:25.763Z,233.20
2023-02-11T09:34:25.662Z,223.20
2023-02-11T09:35:25.573Z,200.20
2023-02-11T09:36:25.433Z,193.50
2023-02-11T09:37:25.363Z,225.80
2023-02-11T09:38:25.222Z,208.70
2023-02-11T09:39:25.105Z,211.20
2023-02-11T09:40:25.005Z,217.50
2023-02-11T09:41:24.895Z,218.80
2023-02-11T09:42:24.785Z,192.80
2023-02-11T09:43:24.675Z,216.10
2023-02-11T09:44:24.572Z,194.00
2023-02-11T09:45:24.483Z,192.30
2023-02-11T09:46:24.422Z,178.70
2023-02-11T09:47:24.258Z,186.10
2023-02-11T09:48:24.146Z,162.10
2023-02-11T09:49:24.030Z,183.20
2023-02-11T09:50:23.917Z,193.80
2023-02-11T09:51:23.809Z,189.60
2023-02-11T09:52:23.694Z,247.20
2023-02-11T09:53:23.588Z,234.00
2023-02-11T09:54:23.477Z,185.20
2023-02-11T09:55:23.378Z,176.20
2023-02-11T09:56:23.250Z,232.20
2023-02-11T09:57:28.173Z,196.10
2023-02-11T09:58:24.019Z,216.80
2023-02-11T09:59:22.913Z,195.70
2023-02-11T10:00:22.831Z,195.50
2023-02-11T10:01:22.744Z,201.90
2023-02-11T10:02:22.582Z,171.20
2023-02-11T10:03:22.486Z,207.70
2023-02-11T10:04:22.483Z,199.10
2023-02-11T10:05:22.274Z,186.30
2023-02-11T10:06:22.160Z,180.20
2023-02-11T10:07:22.063Z,204.40
2023-02-11T10:08:21.954Z,194.00
2023-02-11T10:09:21.845Z,166.80
2023-02-11T10:10:21.745Z,182.90
2023-02-11T10:11:31.268Z,185.50
2023-02-11T10:12:22.524Z,172.00
2023-02-11T10:13:21.424Z,177.50
2023-02-11T10:14:21.321Z,175.80
2023-02-11T10:15:21.215Z,187.10
2023-02-11T10:16:21.085Z,190.40
2023-02-11T10:17:20.976Z,189.70
2023-02-11T10:18:20.869Z,191.20
2023-02-11T10:19:20.756Z,188.00
2023-02-11T10:20:20.659Z,197.50
2023-02-11T10:21:20.548Z,217.30
2023-02-11T10:22:20.418Z,231.60
2023-02-11T10:23:20.318Z,213.20
2023-02-11T10:24:20.187Z,203.30
2023-02-11T10:25:20.088Z,202.70
2023-02-11T10:26:19.957Z,206.90
2023-02-11T10:27:19.850Z,196.50
2023-02-11T10:28:19.751Z,204.50
2023-02-11T10:29:19.623Z,203.30
2023-02-11T10:30:19.528Z,182.60
2023-02-11T10:31:19.495Z,194.90
2023-02-11T10:32:19.272Z,203.90
2023-02-11T10:33:19.149Z,179.20
2023-02-11T10:34:19.036Z,200.60
2023-02-11T10:35:18.920Z,183.90
2023-02-11T10:36:18.789Z,187.10
2023-02-11T10:37:18.676Z,185.80
2023-02-11T10:38:18.548Z,209.10
2023-02-11T10:39:18.446Z,180.10
2023-02-11T10:40:18.330Z,181.70
2023-02-11T10:41:18.215Z,184.30
2023-02-11T10:42:18.101Z,183.00
2023-02-11T10:43:17.981Z,190.20
2023-02-11T10:44:17.863Z,176.20
2023-02-11T10:45:17.768Z,201.60
2023-02-11T10:46:17.685Z,195.00
2023-02-11T10:47:17.520Z,183.70
2023-02-11T10:48:17.411Z,191.90
2023-02-11T10:49:17.291Z,218.70
2023-02-11T10:50:17.192Z,184.90
2023-02-11T10:51:17.072Z,213.30
2023-02-11T10:52:16.955Z,213.10
2023-02-11T10:53:16.832Z,217.00
2023-02-11T10:54:16.713Z,214.20
2023-02-11T10:55:16.617Z,207.20
2023-02-11T10:56:16.482Z,239.50
2023-02-11T10:57:16.374Z,216.80
2023-02-11T10:58:16.253Z,192.70
2023-02-11T10:59:16.137Z,206.20
2023-02-11T11:00:16.023Z,216.50
2023-02-11T11:01:24.271Z,195.60
2023-02-11T11:02:16.780Z,217.70
2023-02-11T11:03:15.665Z,199.20
2023-02-11T11:04:15.625Z,191.70
2023-02-11T11:05:15.442Z,208.10
2023-02-11T11:06:15.305Z,214.30
2023-02-11T11:07:15.196Z,198.20
2023-02-11T11:08:15.084Z,211.00
2023-02-11T11:09:14.962Z,225.30
2023-02-11T11:10:14.844Z,210.10
2023-02-11T11:11:14.737Z,228.80
2023-02-11T11:12:14.603Z,222.90
2023-02-11T11:13:14.486Z,197.40
2023-02-11T11:14:14.366Z,213.80
2023-02-11T11:15:14.275Z,258.00
2023-02-11T11:16:14.229Z,228.40
2023-02-11T11:17:14.028Z,222.10
2023-02-11T11:18:21.331Z,223.00
2023-02-11T11:19:14.806Z,233.60
2023-02-11T11:20:13.703Z,225.00
2023-02-11T11:21:13.592Z,220.50
2023-02-11T11:22:13.477Z,221.20
2023-02-11T11:23:13.409Z,217.10
2023-02-11T11:24:13.248Z,217.20
2023-02-11T11:25:13.160Z,208.70
2023-02-11T11:26:13.036Z,200.30
2023-02-11T11:27:12.929Z,215.10
2023-02-11T11:28:12.865Z,235.70
2023-02-11T11:29:12.679Z,210.00
2023-02-11T11:30:12.569Z,213.50
2023-02-11T11:31:12.591Z,221.00
2023-02-11T11:32:12.359Z,206.90
2023-02-11T11:33:12.201Z,229.50
2023-02-11T11:34:12.080Z,212.40
2023-02-11T11:35:11.984Z,217.50
2023-02-11T11:36:11.838Z,213.90
2023-02-11T11:37:11.724Z,184.40
2023-02-11T11:38:11.618Z,177.10
2023-02-11T11:39:11.497Z,189.40
2023-02-11T11:40:11.398Z,190.60
2023-02-11T11:41:11.266Z,219.50
2023-02-11T11:42:11.156Z,203.70
2023-02-11T11:43:11.051Z,200.20
2023-02-11T11:44:10.936Z,199.00
2023-02-11T11:45:10.826Z,211.20
2023-02-11T11:46:10.751Z,198.20
2023-02-11T11:47:10.591Z,221.70
2023-02-11T11:48:10.485Z,212.10
2023-02-11T11:49:10.356Z,265.60
2023-02-11T11:50:10.275Z,237.90
2023-02-11T11:51:10.135Z,238.30
2023-02-11T11:52:10.026Z,200.40
2023-02-11T11:53:09.904Z,221.50
2023-02-11T11:54:09.800Z,224.30
2023-02-11T11:55:09.686Z,224.00
2023-02-11T11:56:09.566Z,211.40
2023-02-11T11:57:09.436Z,243.20
2023-02-11T11:58:09.328Z,222.50
2023-02-11T11:59:09.213Z,229.60
2023-02-11T12:00:09.116Z,222.50
2023-02-11T12:01:08.978Z,229.00
2023-02-11T12:02:08.913Z,223.90
2023-02-11T12:03:08.825Z,230.50
2023-02-11T12:04:08.614Z,218.90
2023-02-11T12:05:08.496Z,208.60
2023-02-11T12:06:08.355Z,217.30
2023-02-11T12:07:08.230Z,218.60
2023-02-11T12:08:08.109Z,214.10
2023-02-11T12:09:07.981Z,244.30
2023-02-11T12:10:07.870Z,249.50
2023-02-11T12:11:07.738Z,230.70
2023-02-11T12:12:07.621Z,219.00
2023-02-11T12:13:07.513Z,278.60
2023-02-11T12:14:07.402Z,269.50
2023-02-11T12:15:07.270Z,224.80
2023-02-11T12:16:07.218Z,289.20
2023-02-11T12:17:07.038Z,223.40
2023-02-11T12:18:06.924Z,236.60
2023-02-11T12:19:06.800Z,247.60
2023-02-11T12:20:06.702Z,234.00
2023-02-11T12:21:06.589Z,248.50
2023-02-11T12:22:06.460Z,235.50
2023-02-11T12:23:06.340Z,233.30
2023-02-11T12:24:06.250Z,228.50
2023-02-11T12:25:06.131Z,236.70
2023-02-11T12:26:06.010Z,239.60
2023-02-11T12:27:05.890Z,234.70
2023-02-11T12:28:05.847Z,235.30
2023-02-11T12:29:05.671Z,221.10
2023-02-11T12:30:05.554Z,222.80
2023-02-11T12:31:05.479Z,228.00
2023-02-11T12:32:05.371Z,220.50
2023-02-11T12:33:05.190Z,194.10
2023-02-11T12:34:05.069Z,233.70
2023-02-11T12:35:04.944Z,223.50